sensor_id;sensor_type;location;lat;lon;timestamp;temperature;humidity
24678;DHT22;12800;53.094;8.778;2024-01-06T00:02:23;4.40;90.90
24678;DHT22;12800;53.094;8.778;2024-01-06T00:04:49;4.40;91.00
24678;DHT22;12800;53.094;8.778;2024-01-06T00:07:15;4.40;90.90
24678;DHT22;12800;53.094;8.778;2024-01-06T00:09:40;4.40;90.90
24678;DHT22;12800;53.094;8.778;2024-01-06T00:12:06;4.30;90.90
24678;DHT22;12800;53.094;8.778;2024-01-06T00:14:32;4.30;90.90
24678;DHT22;12800;53.094;8.778;2024-01-06T00:16:57;4.30;90.90
24678;DHT22;12800;53.094;8.778;2024-01-06T00:19:23;4.30;90.90
24678;DHT22;12800;53.094;8.778;2024-01-06T00:21:48;4.30;90.90
24678;DHT22;12800;53.094;8.778;2024-01-06T00:24:14;4.20;90.90
24678;DHT22;12800;53.094;8.778;2024-01-06T00:26:40;4.20;91.00
24678;DHT22;12800;53.094;8.778;2024-01-06T00:29:05;4.20;91.10
24678;DHT22;12800;53.094;8.778;2024-01-06T00:31:31;4.30;91.10
24678;DHT22;12800;53.094;8.778;2024-01-06T00:33:56;4.30;91.10
24678;DHT22;12800;53.094;8.778;2024-01-06T00:36:22;4.30;91.00
24678;DHT22;12800;53.094;8.778;2024-01-06T00:38:48;4.30;91.00
24678;DHT22;12800;53.094;8.778;2024-01-06T00:41:14;4.30;91.00
24678;DHT22;12800;53.094;8.778;2024-01-06T00:43:40;4.40;91.00
24678;DHT22;12800;53.094;8.778;2024-01-06T00:46:06;4.40;91.00
24678;DHT22;12800;53.094;8.778;2024-01-06T00:48:31;4.30;90.80
24678;DHT22;12800;53.094;8.778;2024-01-06T00:50:57;4.30;90.90
24678;DHT22;12800;53.094;8.778;2024-01-06T00:53:23;4.30;90.90
24678;DHT22;12800;53.094;8.778;2024-01-06T00:55:48;4.30;90.90
24678;DHT22;12800;53.094;8.778;2024-01-06T00:58:14;4.30;90.90
24678;DHT22;12800;53.094;8.778;2024-01-06T01:00:39;4.40;91.00
24678;DHT22;12800;53.094;8.778;2024-01-06T01:03:05;4.40;91.00
24678;DHT22;12800;53.094;8.778;2024-01-06T01:05:31;4.40;90.90
24678;DHT22;12800;53.094;8.778;2024-01-06T01:07:56;4.40;90.80
24678;DHT22;12800;53.094;8.778;2024-01-06T01:10:22;4.30;90.70
24678;DHT22;12800;53.094;8.778;2024-01-06T01:12:47;4.30;90.80
24678;DHT22;12800;53.094;8.778;2024-01-06T01:15:13;4.40;90.80
24678;DHT22;12800;53.094;8.778;2024-01-06T01:17:39;4.30;90.70
24678;DHT22;12800;53.094;8.778;2024-01-06T01:20:05;4.30;90.70
24678;DHT22;12800;53.094;8.778;2024-01-06T01:22:31;4.30;90.80
24678;DHT22;12800;53.094;8.778;2024-01-06T01:24:57;4.30;90.80
24678;DHT22;12800;53.094;8.778;2024-01-06T01:27:22;4.20;90.70
24678;DHT22;12800;53.094;8.778;2024-01-06T01:29:48;4.30;90.80
24678;DHT22;12800;53.094;8.778;2024-01-06T01:32:18;4.20;90.70
24678;DHT22;12800;53.094;8.778;2024-01-06T01:34:44;4.20;90.80
24678;DHT22;12800;53.094;8.778;2024-01-06T01:37:09;4.20;90.90
24678;DHT22;12800;53.094;8.778;2024-01-06T01:39:35;4.30;90.90
24678;DHT22;12800;53.094;8.778;2024-01-06T01:42:00;4.30;90.90
24678;DHT22;12800;53.094;8.778;2024-01-06T01:44:26;4.30;90.90
24678;DHT22;12800;53.094;8.778;2024-01-06T01:46:52;4.30;90.90
24678;DHT22;12800;53.094;8.778;2024-01-06T01:49:17;4.30;90.80
24678;DHT22;12800;53.094;8.778;2024-01-06T01:51:43;4.30;90.90
24678;DHT22;12800;53.094;8.778;2024-01-06T01:54:10;4.30;91.10
24678;DHT22;12800;53.094;8.778;2024-01-06T01:56:36;4.20;90.60
24678;DHT22;12800;53.094;8.778;2024-01-06T01:59:12;4.20;90.60
24678;DHT22;12800;53.094;8.778;2024-01-06T02:01:41;4.10;90.60
24678;DHT22;12800;53.094;8.778;2024-01-06T02:04:08;4.10;90.70
24678;DHT22;12800;53.094;8.778;2024-01-06T02:06:34;4.10;90.60
24678;DHT22;12800;53.094;8.778;2024-01-06T02:09:00;4.10;90.70
24678;DHT22;12800;53.094;8.778;2024-01-06T02:11:25;4.10;90.80
24678;DHT22;12800;53.094;8.778;2024-01-06T02:13:51;4.10;90.80
24678;DHT22;12800;53.094;8.778;2024-01-06T02:16:17;4.10;90.80
24678;DHT22;12800;53.094;8.778;2024-01-06T02:18:42;4.10;90.70
24678;DHT22;12800;53.094;8.778;2024-01-06T02:21:09;4.10;90.70
24678;DHT22;12800;53.094;8.778;2024-01-06T02:23:36;4.00;90.70
24678;DHT22;12800;53.094;8.778;2024-01-06T02:26:03;4.00;90.60
24678;DHT22;12800;53.094;8.778;2024-01-06T02:28:28;4.00;90.80
24678;DHT22;12800;53.094;8.778;2024-01-06T02:30:54;4.00;90.80
24678;DHT22;12800;53.094;8.778;2024-01-06T02:33:20;4.00;90.80
24678;DHT22;12800;53.094;8.778;2024-01-06T02:35:49;4.00;90.80
24678;DHT22;12800;53.094;8.778;2024-01-06T02:38:14;4.10;90.80
24678;DHT22;12800;53.094;8.778;2024-01-06T02:40:40;4.00;90.70
24678;DHT22;12800;53.094;8.778;2024-01-06T02:43:06;4.00;90.70
24678;DHT22;12800;53.094;8.778;2024-01-06T02:45:31;4.00;90.70
24678;DHT22;12800;53.094;8.778;2024-01-06T02:47:57;4.00;90.60
24678;DHT22;12800;53.094;8.778;2024-01-06T02:50:22;4.00;90.70
24678;DHT22;12800;53.094;8.778;2024-01-06T02:52:48;3.90;90.60
24678;DHT22;12800;53.094;8.778;2024-01-06T02:55:14;4.00;90.70
24678;DHT22;12800;53.094;8.778;2024-01-06T02:57:40;3.90;90.70
24678;DHT22;12800;53.094;8.778;2024-01-06T03:00:07;3.90;90.70
24678;DHT22;12800;53.094;8.778;2024-01-06T03:02:33;4.00;90.80
24678;DHT22;12800;53.094;8.778;2024-01-06T03:04:58;3.90;90.70
24678;DHT22;12800;53.094;8.778;2024-01-06T03:07:25;4.00;90.70
24678;DHT22;12800;53.094;8.778;2024-01-06T03:09:51;4.00;90.70
24678;DHT22;12800;53.094;8.778;2024-01-06T03:12:17;3.90;90.60
24678;DHT22;12800;53.094;8.778;2024-01-06T03:14:42;3.90;90.50
24678;DHT22;12800;53.094;8.778;2024-01-06T03:17:08;3.80;90.40
24678;DHT22;12800;53.094;8.778;2024-01-06T03:19:36;3.80;90.50
24678;DHT22;12800;53.094;8.778;2024-01-06T03:22:01;3.80;90.60
24678;DHT22;12800;53.094;8.778;2024-01-06T03:24:27;3.80;90.60
24678;DHT22;12800;53.094;8.778;2024-01-06T03:26:53;3.80;90.60
24678;DHT22;12800;53.094;8.778;2024-01-06T03:29:18;3.80;90.70
24678;DHT22;12800;53.094;8.778;2024-01-06T03:31:45;3.90;90.70
24678;DHT22;12800;53.094;8.778;2024-01-06T03:34:11;3.80;90.60
24678;DHT22;12800;53.094;8.778;2024-01-06T03:36:37;3.80;90.90
24678;DHT22;12800;53.094;8.778;2024-01-06T03:39:03;3.80;90.50
24678;DHT22;12800;53.094;8.778;2024-01-06T03:41:29;3.80;90.60
24678;DHT22;12800;53.094;8.778;2024-01-06T03:43:54;3.80;90.50
24678;DHT22;12800;53.094;8.778;2024-01-06T03:46:20;3.80;90.80
24678;DHT22;12800;53.094;8.778;2024-01-06T03:48:45;3.70;90.40
24678;DHT22;12800;53.094;8.778;2024-01-06T03:51:12;3.70;90.40
24678;DHT22;12800;53.094;8.778;2024-01-06T03:53:38;3.70;90.50
24678;DHT22;12800;53.094;8.778;2024-01-06T03:56:04;3.70;90.50
24678;DHT22;12800;53.094;8.778;2024-01-06T03:58:29;3.70;90.50
24678;DHT22;12800;53.094;8.778;2024-01-06T04:00:55;3.70;90.90
24678;DHT22;12800;53.094;8.778;2024-01-06T04:03:21;3.70;90.50
24678;DHT22;12800;53.094;8.778;2024-01-06T04:05:46;3.70;90.50
24678;DHT22;12800;53.094;8.778;2024-01-06T04:08:12;3.70;90.50
24678;DHT22;12800;53.094;8.778;2024-01-06T04:10:38;3.80;90.60
24678;DHT22;12800;53.094;8.778;2024-01-06T04:13:04;3.70;90.60
24678;DHT22;12800;53.094;8.778;2024-01-06T04:15:29;3.80;90.50
24678;DHT22;12800;53.094;8.778;2024-01-06T04:17:55;3.80;90.50
24678;DHT22;12800;53.094;8.778;2024-01-06T04:20:21;3.70;90.40
24678;DHT22;12800;53.094;8.778;2024-01-06T04:22:46;3.70;90.50
24678;DHT22;12800;53.094;8.778;2024-01-06T04:25:12;3.70;90.50
24678;DHT22;12800;53.094;8.778;2024-01-06T04:27:37;3.80;90.60
24678;DHT22;12800;53.094;8.778;2024-01-06T04:30:03;3.70;90.40
24678;DHT22;12800;53.094;8.778;2024-01-06T04:32:29;3.70;90.40
24678;DHT22;12800;53.094;8.778;2024-01-06T04:34:54;3.70;90.40
24678;DHT22;12800;53.094;8.778;2024-01-06T04:37:22;3.60;90.30
24678;DHT22;12800;53.094;8.778;2024-01-06T04:39:48;3.60;90.40
24678;DHT22;12800;53.094;8.778;2024-01-06T04:42:13;3.60;90.50
24678;DHT22;12800;53.094;8.778;2024-01-06T04:44:39;3.70;90.60
24678;DHT22;12800;53.094;8.778;2024-01-06T04:47:04;3.70;90.50
24678;DHT22;12800;53.094;8.778;2024-01-06T04:49:30;3.70;90.50
24678;DHT22;12800;53.094;8.778;2024-01-06T04:51:55;3.70;90.50
24678;DHT22;12800;53.094;8.778;2024-01-06T04:54:21;3.70;90.60
24678;DHT22;12800;53.094;8.778;2024-01-06T04:56:47;3.80;91.00
24678;DHT22;12800;53.094;8.778;2024-01-06T04:59:13;3.80;90.60
24678;DHT22;12800;53.094;8.778;2024-01-06T05:01:38;3.80;90.50
24678;DHT22;12800;53.094;8.778;2024-01-06T05:04:04;3.80;90.50
24678;DHT22;12800;53.094;8.778;2024-01-06T05:06:30;3.80;90.50
24678;DHT22;12800;53.094;8.778;2024-01-06T05:08:56;3.80;90.50
24678;DHT22;12800;53.094;8.778;2024-01-06T05:11:22;3.80;90.50
24678;DHT22;12800;53.094;8.778;2024-01-06T05:13:48;3.80;90.40
24678;DHT22;12800;53.094;8.778;2024-01-06T05:16:13;3.70;90.30
24678;DHT22;12800;53.094;8.778;2024-01-06T05:18:39;3.70;90.40
24678;DHT22;12800;53.094;8.778;2024-01-06T05:21:05;3.70;90.40
24678;DHT22;12800;53.094;8.778;2024-01-06T05:23:31;3.70;90.80
24678;DHT22;12800;53.094;8.778;2024-01-06T05:25:56;3.80;90.40
24678;DHT22;12800;53.094;8.778;2024-01-06T05:28:22;3.70;90.60
24678;DHT22;12800;53.094;8.778;2024-01-06T05:30:47;3.60;90.30
24678;DHT22;12800;53.094;8.778;2024-01-06T05:33:13;3.70;90.40
24678;DHT22;12800;53.094;8.778;2024-01-06T05:35:40;3.70;90.50
24678;DHT22;12800;53.094;8.778;2024-01-06T05:38:06;3.70;90.50
24678;DHT22;12800;53.094;8.778;2024-01-06T05:40:31;3.70;90.50
24678;DHT22;12800;53.094;8.778;2024-01-06T05:42:57;3.70;90.30
24678;DHT22;12800;53.094;8.778;2024-01-06T05:45:23;3.60;90.30
24678;DHT22;12800;53.094;8.778;2024-01-06T05:47:48;3.60;90.40
24678;DHT22;12800;53.094;8.778;2024-01-06T05:50:17;3.60;90.40
24678;DHT22;12800;53.094;8.778;2024-01-06T05:52:44;3.60;90.40
24678;DHT22;12800;53.094;8.778;2024-01-06T05:55:10;3.60;90.40
24678;DHT22;12800;53.094;8.778;2024-01-06T05:57:35;3.60;90.50
24678;DHT22;12800;53.094;8.778;2024-01-06T06:00:01;3.60;90.50
24678;DHT22;12800;53.094;8.778;2024-01-06T06:02:27;3.60;90.50
24678;DHT22;12800;53.094;8.778;2024-01-06T06:04:53;3.70;90.50
24678;DHT22;12800;53.094;8.778;2024-01-06T06:07:19;3.60;90.50
24678;DHT22;12800;53.094;8.778;2024-01-06T06:09:45;3.60;90.30
24678;DHT22;12800;53.094;8.778;2024-01-06T06:12:13;3.60;90.20
24678;DHT22;12800;53.094;8.778;2024-01-06T06:14:39;3.60;90.30
24678;DHT22;12800;53.094;8.778;2024-01-06T06:17:05;3.60;90.40
24678;DHT22;12800;53.094;8.778;2024-01-06T06:19:31;3.60;90.40
24678;DHT22;12800;53.094;8.778;2024-01-06T06:21:57;3.60;90.40
24678;DHT22;12800;53.094;8.778;2024-01-06T06:24:22;3.60;90.70
24678;DHT22;12800;53.094;8.778;2024-01-06T06:26:48;3.60;90.40
24678;DHT22;12800;53.094;8.778;2024-01-06T06:29:14;3.60;90.40
24678;DHT22;12800;53.094;8.778;2024-01-06T06:31:39;3.60;90.40
24678;DHT22;12800;53.094;8.778;2024-01-06T06:34:05;3.60;90.40
24678;DHT22;12800;53.094;8.778;2024-01-06T06:36:30;3.60;90.30
24678;DHT22;12800;53.094;8.778;2024-01-06T06:38:56;3.60;90.40
24678;DHT22;12800;53.094;8.778;2024-01-06T06:41:24;3.60;90.30
24678;DHT22;12800;53.094;8.778;2024-01-06T06:43:50;3.60;90.30
24678;DHT22;12800;53.094;8.778;2024-01-06T06:46:16;3.60;90.30
24678;DHT22;12800;53.094;8.778;2024-01-06T06:48:41;3.60;90.20
24678;DHT22;12800;53.094;8.778;2024-01-06T06:51:07;3.60;90.30
24678;DHT22;12800;53.094;8.778;2024-01-06T06:53:33;3.50;90.30
24678;DHT22;12800;53.094;8.778;2024-01-06T06:55:59;3.50;90.30
24678;DHT22;12800;53.094;8.778;2024-01-06T06:58:24;3.50;90.30
24678;DHT22;12800;53.094;8.778;2024-01-06T07:00:50;3.60;90.50
24678;DHT22;12800;53.094;8.778;2024-01-06T07:03:15;3.50;90.40
24678;DHT22;12800;53.094;8.778;2024-01-06T07:05:41;3.60;90.40
24678;DHT22;12800;53.094;8.778;2024-01-06T07:08:07;3.60;90.30
24678;DHT22;12800;53.094;8.778;2024-01-06T07:10:32;3.60;90.30
24678;DHT22;12800;53.094;8.778;2024-01-06T07:12:58;3.60;90.30
24678;DHT22;12800;53.094;8.778;2024-01-06T07:15:23;3.50;90.20
24678;DHT22;12800;53.094;8.778;2024-01-06T07:17:49;3.50;90.20
24678;DHT22;12800;53.094;8.778;2024-01-06T07:20:15;3.50;90.20
24678;DHT22;12800;53.094;8.778;2024-01-06T07:22:40;3.50;90.20
24678;DHT22;12800;53.094;8.778;2024-01-06T07:25:06;3.40;90.20
24678;DHT22;12800;53.094;8.778;2024-01-06T07:27:32;3.40;90.20
24678;DHT22;12800;53.094;8.778;2024-01-06T07:29:58;3.40;90.20
24678;DHT22;12800;53.094;8.778;2024-01-06T07:32:24;3.40;90.20
24678;DHT22;12800;53.094;8.778;2024-01-06T07:34:50;3.30;90.10
24678;DHT22;12800;53.094;8.778;2024-01-06T07:37:16;3.30;90.10
24678;DHT22;12800;53.094;8.778;2024-01-06T07:39:41;3.30;90.20
24678;DHT22;12800;53.094;8.778;2024-01-06T07:42:07;3.30;90.20
24678;DHT22;12800;53.094;8.778;2024-01-06T07:44:33;3.30;90.10
24678;DHT22;12800;53.094;8.778;2024-01-06T07:46:59;3.20;90.10
24678;DHT22;12800;53.094;8.778;2024-01-06T07:49:24;3.20;90.20
24678;DHT22;12800;53.094;8.778;2024-01-06T07:51:50;3.20;90.50
24678;DHT22;12800;53.094;8.778;2024-01-06T07:54:16;3.20;90.20
24678;DHT22;12800;53.094;8.778;2024-01-06T07:56:41;3.20;90.30
24678;DHT22;12800;53.094;8.778;2024-01-06T07:59:09;3.20;90.30
24678;DHT22;12800;53.094;8.778;2024-01-06T08:01:35;3.20;90.30
24678;DHT22;12800;53.094;8.778;2024-01-06T08:04:01;3.20;90.30
24678;DHT22;12800;53.094;8.778;2024-01-06T08:06:26;3.20;90.40
24678;DHT22;12800;53.094;8.778;2024-01-06T08:08:52;3.20;90.40
24678;DHT22;12800;53.094;8.778;2024-01-06T08:11:18;3.20;90.30
24678;DHT22;12800;53.094;8.778;2024-01-06T08:13:43;3.20;90.30
24678;DHT22;12800;53.094;8.778;2024-01-06T08:16:09;3.20;90.30
24678;DHT22;12800;53.094;8.778;2024-01-06T08:18:35;3.20;90.30
24678;DHT22;12800;53.094;8.778;2024-01-06T08:21:00;3.20;90.60
24678;DHT22;12800;53.094;8.778;2024-01-06T08:23:26;3.20;90.30
24678;DHT22;12800;53.094;8.778;2024-01-06T08:25:52;3.20;90.30
24678;DHT22;12800;53.094;8.778;2024-01-06T08:28:17;3.20;90.30
24678;DHT22;12800;53.094;8.778;2024-01-06T08:30:44;3.20;90.40
24678;DHT22;12800;53.094;8.778;2024-01-06T08:33:10;3.30;90.40
24678;DHT22;12800;53.094;8.778;2024-01-06T08:35:36;3.30;90.30
24678;DHT22;12800;53.094;8.778;2024-01-06T08:38:06;3.20;90.20
24678;DHT22;12800;53.094;8.778;2024-01-06T08:40:32;3.20;90.20
24678;DHT22;12800;53.094;8.778;2024-01-06T08:42:57;3.20;90.20
24678;DHT22;12800;53.094;8.778;2024-01-06T08:45:23;3.30;90.30
24678;DHT22;12800;53.094;8.778;2024-01-06T08:47:48;3.30;90.20
24678;DHT22;12800;53.094;8.778;2024-01-06T08:50:14;3.30;90.30
24678;DHT22;12800;53.094;8.778;2024-01-06T08:52:40;3.30;90.30
24678;DHT22;12800;53.094;8.778;2024-01-06T08:55:06;3.30;90.20
24678;DHT22;12800;53.094;8.778;2024-01-06T08:57:31;3.30;90.20
24678;DHT22;12800;53.094;8.778;2024-01-06T08:59:57;3.40;90.20
24678;DHT22;12800;53.094;8.778;2024-01-06T09:02:22;3.30;90.10
24678;DHT22;12800;53.094;8.778;2024-01-06T09:04:48;3.40;90.10
24678;DHT22;12800;53.094;8.778;2024-01-06T09:07:14;3.30;90.00
24678;DHT22;12800;53.094;8.778;2024-01-06T09:09:39;3.30;89.90
24678;DHT22;12800;53.094;8.778;2024-01-06T09:12:05;3.30;90.00
24678;DHT22;12800;53.094;8.778;2024-01-06T09:14:31;3.20;89.90
24678;DHT22;12800;53.094;8.778;2024-01-06T09:16:56;3.20;89.90
24678;DHT22;12800;53.094;8.778;2024-01-06T09:19:22;3.30;90.00
24678;DHT22;12800;53.094;8.778;2024-01-06T09:21:48;3.20;89.70
24678;DHT22;12800;53.094;8.778;2024-01-06T09:24:13;3.20;89.70
24678;DHT22;12800;53.094;8.778;2024-01-06T09:26:39;3.20;89.90
24678;DHT22;12800;53.094;8.778;2024-01-06T09:29:04;3.20;90.00
24678;DHT22;12800;53.094;8.778;2024-01-06T09:31:30;3.10;90.00
24678;DHT22;12800;53.094;8.778;2024-01-06T09:34:00;3.20;90.00
24678;DHT22;12800;53.094;8.778;2024-01-06T09:36:31;3.20;90.00
24678;DHT22;12800;53.094;8.778;2024-01-06T09:38:56;3.10;90.00
24678;DHT22;12800;53.094;8.778;2024-01-06T09:41:23;3.20;90.00
24678;DHT22;12800;53.094;8.778;2024-01-06T09:43:50;3.20;90.00
24678;DHT22;12800;53.094;8.778;2024-01-06T09:46:25;3.20;89.90
24678;DHT22;12800;53.094;8.778;2024-01-06T09:48:55;3.20;90.00
24678;DHT22;12800;53.094;8.778;2024-01-06T09:51:22;3.20;90.00
24678;DHT22;12800;53.094;8.778;2024-01-06T09:54:30;3.20;90.10
24678;DHT22;12800;53.094;8.778;2024-01-06T09:56:37;3.30;90.10
24678;DHT22;12800;53.094;8.778;2024-01-06T09:59:04;3.30;89.70
24678;DHT22;12800;53.094;8.778;2024-01-06T10:01:30;3.20;89.60
24678;DHT22;12800;53.094;8.778;2024-01-06T10:03:56;3.20;89.70
24678;DHT22;12800;53.094;8.778;2024-01-06T10:06:21;3.20;89.80
24678;DHT22;12800;53.094;8.778;2024-01-06T10:08:51;3.20;90.00
24678;DHT22;12800;53.094;8.778;2024-01-06T10:11:18;3.30;90.00
24678;DHT22;12800;53.094;8.778;2024-01-06T10:13:44;3.30;90.00
24678;DHT22;12800;53.094;8.778;2024-01-06T10:16:10;3.30;90.00
24678;DHT22;12800;53.094;8.778;2024-01-06T10:18:35;3.30;90.00
24678;DHT22;12800;53.094;8.778;2024-01-06T10:21:05;3.30;89.80
24678;DHT22;12800;53.094;8.778;2024-01-06T10:23:32;3.30;89.50
24678;DHT22;12800;53.094;8.778;2024-01-06T10:25:58;3.30;89.60
24678;DHT22;12800;53.094;8.778;2024-01-06T10:28:25;3.20;89.50
24678;DHT22;12800;53.094;8.778;2024-01-06T10:30:55;3.30;89.70
24678;DHT22;12800;53.094;8.778;2024-01-06T10:33:22;3.30;89.70
24678;DHT22;12800;53.094;8.778;2024-01-06T10:35:48;3.30;89.50
24678;DHT22;12800;53.094;8.778;2024-01-06T10:38:15;3.30;89.40
24678;DHT22;12800;53.094;8.778;2024-01-06T10:40:59;3.30;89.50
24678;DHT22;12800;53.094;8.778;2024-01-06T10:43:28;3.30;89.50
24678;DHT22;12800;53.094;8.778;2024-01-06T10:46:01;3.40;89.40
24678;DHT22;12800;53.094;8.778;2024-01-06T10:48:32;3.40;89.20
24678;DHT22;12800;53.094;8.778;2024-01-06T10:50:59;3.40;89.10
24678;DHT22;12800;53.094;8.778;2024-01-06T10:53:26;3.40;89.10
24678;DHT22;12800;53.094;8.778;2024-01-06T10:55:52;3.40;89.00
24678;DHT22;12800;53.094;8.778;2024-01-06T10:58:18;3.40;88.80
24678;DHT22;12800;53.094;8.778;2024-01-06T11:00:44;3.40;88.80
24678;DHT22;12800;53.094;8.778;2024-01-06T11:03:10;3.40;88.70
24678;DHT22;12800;53.094;8.778;2024-01-06T11:05:37;3.40;88.50
24678;DHT22;12800;53.094;8.778;2024-01-06T11:08:04;3.30;88.50
24678;DHT22;12800;53.094;8.778;2024-01-06T11:10:31;3.30;88.80
24678;DHT22;12800;53.094;8.778;2024-01-06T11:18:08;3.40;88.80
24678;DHT22;12800;53.094;8.778;2024-01-06T11:20:34;3.40;88.70
24678;DHT22;12800;53.094;8.778;2024-01-06T11:23:19;3.40;88.60
24678;DHT22;12800;53.094;8.778;2024-01-06T11:25:47;3.40;88.40
24678;DHT22;12800;53.094;8.778;2024-01-06T11:28:13;3.40;88.30
24678;DHT22;12800;53.094;8.778;2024-01-06T11:30:39;3.40;88.50
24678;DHT22;12800;53.094;8.778;2024-01-06T11:33:05;3.30;88.30
24678;DHT22;12800;53.094;8.778;2024-01-06T11:35:31;3.30;88.20
24678;DHT22;12800;53.094;8.778;2024-01-06T11:38:00;3.30;88.40
24678;DHT22;12800;53.094;8.778;2024-01-06T11:40:35;3.30;88.30
24678;DHT22;12800;53.094;8.778;2024-01-06T11:43:07;3.30;88.50
24678;DHT22;12800;53.094;8.778;2024-01-06T11:45:38;3.30;88.40
24678;DHT22;12800;53.094;8.778;2024-01-06T11:48:07;3.30;89.30
24678;DHT22;12800;53.094;8.778;2024-01-06T11:50:35;3.20;88.40
24678;DHT22;12800;53.094;8.778;2024-01-06T11:53:02;3.20;88.30
24678;DHT22;12800;53.094;8.778;2024-01-06T11:55:29;3.20;88.40
24678;DHT22;12800;53.094;8.778;2024-01-06T11:57:56;3.20;88.50
24678;DHT22;12800;53.094;8.778;2024-01-06T12:00:23;3.20;89.00
24678;DHT22;12800;53.094;8.778;2024-01-06T12:02:49;3.20;88.60
24678;DHT22;12800;53.094;8.778;2024-01-06T12:05:16;3.30;88.60
24678;DHT22;12800;53.094;8.778;2024-01-06T12:07:56;3.20;88.50
24678;DHT22;12800;53.094;8.778;2024-01-06T12:10:22;3.20;88.60
24678;DHT22;12800;53.094;8.778;2024-01-06T12:13:01;3.20;88.40
24678;DHT22;12800;53.094;8.778;2024-01-06T12:15:29;3.20;88.40
24678;DHT22;12800;53.094;8.778;2024-01-06T12:17:56;3.10;88.60
24678;DHT22;12800;53.094;8.778;2024-01-06T12:20:22;3.20;88.70
24678;DHT22;12800;53.094;8.778;2024-01-06T12:22:50;3.20;88.60
24678;DHT22;12800;53.094;8.778;2024-01-06T12:25:16;3.10;88.50
24678;DHT22;12800;53.094;8.778;2024-01-06T12:27:43;3.10;88.40
24678;DHT22;12800;53.094;8.778;2024-01-06T12:30:16;3.10;88.70
24678;DHT22;12800;53.094;8.778;2024-01-06T12:32:45;3.10;88.50
24678;DHT22;12800;53.094;8.778;2024-01-06T12:35:11;3.10;88.50
24678;DHT22;12800;53.094;8.778;2024-01-06T12:37:38;3.10;89.60
24678;DHT22;12800;53.094;8.778;2024-01-06T12:40:04;3.10;88.80
24678;DHT22;12800;53.094;8.778;2024-01-06T12:42:30;3.20;88.90
24678;DHT22;12800;53.094;8.778;2024-01-06T12:44:55;3.20;88.90
24678;DHT22;12800;53.094;8.778;2024-01-06T12:47:21;3.20;88.70
24678;DHT22;12800;53.094;8.778;2024-01-06T12:49:47;3.20;88.70
24678;DHT22;12800;53.094;8.778;2024-01-06T12:52:12;3.20;88.70
24678;DHT22;12800;53.094;8.778;2024-01-06T12:54:39;3.20;88.50
24678;DHT22;12800;53.094;8.778;2024-01-06T12:57:05;3.20;88.40
24678;DHT22;12800;53.094;8.778;2024-01-06T12:59:31;3.10;88.30
24678;DHT22;12800;53.094;8.778;2024-01-06T13:01:57;3.10;88.50
24678;DHT22;12800;53.094;8.778;2024-01-06T13:04:22;3.20;88.70
24678;DHT22;12800;53.094;8.778;2024-01-06T13:06:48;3.20;88.60
24678;DHT22;12800;53.094;8.778;2024-01-06T13:09:15;3.20;88.50
24678;DHT22;12800;53.094;8.778;2024-01-06T13:11:42;3.20;88.70
24678;DHT22;12800;53.094;8.778;2024-01-06T13:14:08;3.20;88.60
24678;DHT22;12800;53.094;8.778;2024-01-06T13:16:34;3.20;88.60
24678;DHT22;12800;53.094;8.778;2024-01-06T13:19:00;3.20;88.60
24678;DHT22;12800;53.094;8.778;2024-01-06T13:21:26;3.20;88.30
24678;DHT22;12800;53.094;8.778;2024-01-06T13:23:54;3.10;88.30
24678;DHT22;12800;53.094;8.778;2024-01-06T13:26:19;3.10;88.30
24678;DHT22;12800;53.094;8.778;2024-01-06T13:28:45;3.10;88.40
24678;DHT22;12800;53.094;8.778;2024-01-06T13:31:11;3.10;88.40
24678;DHT22;12800;53.094;8.778;2024-01-06T13:33:37;3.10;88.20
24678;DHT22;12800;53.094;8.778;2024-01-06T13:36:03;3.00;88.20
24678;DHT22;12800;53.094;8.778;2024-01-06T13:38:29;3.00;88.20
24678;DHT22;12800;53.094;8.778;2024-01-06T13:40:55;3.10;88.40
24678;DHT22;12800;53.094;8.778;2024-01-06T13:43:21;3.10;88.20
24678;DHT22;12800;53.094;8.778;2024-01-06T13:45:46;3.00;88.00
24678;DHT22;12800;53.094;8.778;2024-01-06T13:48:13;3.00;87.80
24678;DHT22;12800;53.094;8.778;2024-01-06T13:50:39;3.00;87.80
24678;DHT22;12800;53.094;8.778;2024-01-06T13:53:05;2.90;87.60
24678;DHT22;12800;53.094;8.778;2024-01-06T13:55:32;2.90;87.70
24678;DHT22;12800;53.094;8.778;2024-01-06T13:57:59;2.90;87.70
24678;DHT22;12800;53.094;8.778;2024-01-06T14:00:24;2.90;87.70
24678;DHT22;12800;53.094;8.778;2024-01-06T14:02:51;2.80;87.50
24678;DHT22;12800;53.094;8.778;2024-01-06T14:05:17;2.80;87.50
24678;DHT22;12800;53.094;8.778;2024-01-06T14:07:45;2.80;87.70
24678;DHT22;12800;53.094;8.778;2024-01-06T14:10:12;2.80;87.80
24678;DHT22;12800;53.094;8.778;2024-01-06T14:12:39;2.80;87.90
24678;DHT22;12800;53.094;8.778;2024-01-06T14:15:06;2.90;88.00
24678;DHT22;12800;53.094;8.778;2024-01-06T14:17:32;2.90;88.00
24678;DHT22;12800;53.094;8.778;2024-01-06T14:19:58;2.90;87.80
24678;DHT22;12800;53.094;8.778;2024-01-06T14:22:23;2.90;87.70
24678;DHT22;12800;53.094;8.778;2024-01-06T14:24:49;2.90;87.40
24678;DHT22;12800;53.094;8.778;2024-01-06T14:27:15;2.90;87.50
24678;DHT22;12800;53.094;8.778;2024-01-06T14:29:41;2.90;87.60
24678;DHT22;12800;53.094;8.778;2024-01-06T14:32:07;2.90;87.60
24678;DHT22;12800;53.094;8.778;2024-01-06T14:34:33;2.80;87.20
24678;DHT22;12800;53.094;8.778;2024-01-06T14:36:59;2.80;87.20
24678;DHT22;12800;53.094;8.778;2024-01-06T14:39:25;2.80;87.20
24678;DHT22;12800;53.094;8.778;2024-01-06T14:41:50;2.80;87.10
24678;DHT22;12800;53.094;8.778;2024-01-06T14:44:17;2.80;87.20
24678;DHT22;12800;53.094;8.778;2024-01-06T14:46:46;2.80;88.20
24678;DHT22;12800;53.094;8.778;2024-01-06T14:49:11;2.80;87.20
24678;DHT22;12800;53.094;8.778;2024-01-06T14:51:37;2.80;87.00
24678;DHT22;12800;53.094;8.778;2024-01-06T14:54:03;2.70;87.10
24678;DHT22;12800;53.094;8.778;2024-01-06T14:56:29;2.70;87.30
24678;DHT22;12800;53.094;8.778;2024-01-06T14:58:56;2.70;87.60
24678;DHT22;12800;53.094;8.778;2024-01-06T15:01:22;2.80;87.70
24678;DHT22;12800;53.094;8.778;2024-01-06T15:03:47;2.80;87.70
24678;DHT22;12800;53.094;8.778;2024-01-06T15:06:13;2.80;87.20
24678;DHT22;12800;53.094;8.778;2024-01-06T15:08:39;2.80;87.30
24678;DHT22;12800;53.094;8.778;2024-01-06T15:11:04;2.80;87.30
24678;DHT22;12800;53.094;8.778;2024-01-06T15:13:32;2.80;87.20
24678;DHT22;12800;53.094;8.778;2024-01-06T15:15:57;2.80;87.20
24678;DHT22;12800;53.094;8.778;2024-01-06T15:18:23;2.80;87.10
24678;DHT22;12800;53.094;8.778;2024-01-06T15:20:49;2.80;87.20
24678;DHT22;12800;53.094;8.778;2024-01-06T15:23:15;2.80;87.10
24678;DHT22;12800;53.094;8.778;2024-01-06T15:25:44;2.80;87.30
24678;DHT22;12800;53.094;8.778;2024-01-06T15:28:09;2.80;87.20
24678;DHT22;12800;53.094;8.778;2024-01-06T15:30:35;2.80;87.30
24678;DHT22;12800;53.094;8.778;2024-01-06T15:33:00;2.90;87.20
24678;DHT22;12800;53.094;8.778;2024-01-06T15:35:26;2.90;87.40
24678;DHT22;12800;53.094;8.778;2024-01-06T15:37:52;2.90;87.20
24678;DHT22;12800;53.094;8.778;2024-01-06T15:40:17;2.90;87.00
24678;DHT22;12800;53.094;8.778;2024-01-06T15:42:43;2.80;86.80
24678;DHT22;12800;53.094;8.778;2024-01-06T15:45:09;2.80;87.20